sensor_id;sensor_type;location;lat;lon;timestamp;temperature;humidity
3055;DHT22;1537;52.018;8.542;2022-12-18T00:02:52;-6.60;74.30
3055;DHT22;1537;52.018;8.542;2022-12-18T00:06:18;-6.60;74.70
3055;DHT22;1537;52.018;8.542;2022-12-18T00:09:42;-6.60;74.80
3055;DHT22;1537;52.018;8.542;2022-12-18T00:13:06;-6.60;74.30
3055;DHT22;1537;52.018;8.542;2022-12-18T00:16:34;-6.70;76.30
3055;DHT22;1537;52.018;8.542;2022-12-18T00:19:59;-6.70;75.70
3055;DHT22;1537;52.018;8.542;2022-12-18T00:23:23;-6.80;75.70
3055;DHT22;1537;52.018;8.542;2022-12-18T00:26:47;-6.80;75.80
3055;DHT22;1537;52.018;8.542;2022-12-18T00:30:12;-6.80;75.30
3055;DHT22;1537;52.018;8.542;2022-12-18T00:33:40;-6.80;75.50
3055;DHT22;1537;52.018;8.542;2022-12-18T00:37:07;-6.70;75.60
3055;DHT22;1537;52.018;8.542;2022-12-18T00:40:31;-6.70;75.50
3055;DHT22;1537;52.018;8.542;2022-12-18T00:43:55;-6.70;75.00
3055;DHT22;1537;52.018;8.542;2022-12-18T00:47:18;-6.80;74.90
3055;DHT22;1537;52.018;8.542;2022-12-18T00:50:47;-6.80;75.10
3055;DHT22;1537;52.018;8.542;2022-12-18T00:54:12;-6.80;75.10
3055;DHT22;1537;52.018;8.542;2022-12-18T00:57:36;-6.90;75.30
3055;DHT22;1537;52.018;8.542;2022-12-18T01:01:03;-6.80;75.10
3055;DHT22;1537;52.018;8.542;2022-12-18T01:04:31;-6.80;74.60
3055;DHT22;1537;52.018;8.542;2022-12-18T01:07:57;-7.00;74.50
3055;DHT22;1537;52.018;8.542;2022-12-18T01:11:22;-6.90;75.00
3055;DHT22;1537;52.018;8.542;2022-12-18T01:14:46;-6.90;74.90
3055;DHT22;1537;52.018;8.542;2022-12-18T01:18:13;-7.00;73.50
3055;DHT22;1537;52.018;8.542;2022-12-18T01:21:38;-7.10;74.20
3055;DHT22;1537;52.018;8.542;2022-12-18T01:25:04;-7.10;74.70
3055;DHT22;1537;52.018;8.542;2022-12-18T01:28:29;-7.00;74.80
3055;DHT22;1537;52.018;8.542;2022-12-18T01:31:55;-7.00;74.60
3055;DHT22;1537;52.018;8.542;2022-12-18T01:35:19;-7.10;74.30
3055;DHT22;1537;52.018;8.542;2022-12-18T01:38:46;-7.10;74.60
3055;DHT22;1537;52.018;8.542;2022-12-18T01:42:14;-7.00;74.50
3055;DHT22;1537;52.018;8.542;2022-12-18T01:45:44;-7.00;74.40
3055;DHT22;1537;52.018;8.542;2022-12-18T01:49:10;-7.00;74.30
3055;DHT22;1537;52.018;8.542;2022-12-18T01:52:35;-7.00;74.10
3055;DHT22;1537;52.018;8.542;2022-12-18T01:56:02;-7.10;74.00
3055;DHT22;1537;52.018;8.542;2022-12-18T01:59:29;-7.10;74.00
3055;DHT22;1537;52.018;8.542;2022-12-18T02:02:55;-7.10;74.10
3055;DHT22;1537;52.018;8.542;2022-12-18T02:06:23;-7.10;73.20
3055;DHT22;1537;52.018;8.542;2022-12-18T02:09:58;-7.10;73.50
3055;DHT22;1537;52.018;8.542;2022-12-18T02:13:32;-7.10;73.40
3055;DHT22;1537;52.018;8.542;2022-12-18T02:17:03;-7.20;73.40
3055;DHT22;1537;52.018;8.542;2022-12-18T02:20:33;-7.20;73.70
3055;DHT22;1537;52.018;8.542;2022-12-18T02:24:09;-7.10;73.60
3055;DHT22;1537;52.018;8.542;2022-12-18T02:27:39;-7.20;72.60
3055;DHT22;1537;52.018;8.542;2022-12-18T02:31:08;-7.20;73.00
3055;DHT22;1537;52.018;8.542;2022-12-18T02:34:37;-7.20;72.80
3055;DHT22;1537;52.018;8.542;2022-12-18T02:38:06;-7.20;73.30
3055;DHT22;1537;52.018;8.542;2022-12-18T02:41:31;-7.20;73.10
3055;DHT22;1537;52.018;8.542;2022-12-18T02:44:58;-7.20;73.00
3055;DHT22;1537;52.018;8.542;2022-12-18T02:48:30;-7.30;73.10
3055;DHT22;1537;52.018;8.542;2022-12-18T02:51:59;-7.30;73.40
3055;DHT22;1537;52.018;8.542;2022-12-18T02:55:32;-7.40;73.50
3055;DHT22;1537;52.018;8.542;2022-12-18T02:59:06;-7.40;73.00
3055;DHT22;1537;52.018;8.542;2022-12-18T03:02:45;-7.40;74.00
3055;DHT22;1537;52.018;8.542;2022-12-18T03:06:12;-7.40;74.40
3055;DHT22;1537;52.018;8.542;2022-12-18T03:09:42;-7.40;74.10
3055;DHT22;1537;52.018;8.542;2022-12-18T03:13:13;-7.50;74.10
3055;DHT22;1537;52.018;8.542;2022-12-18T03:16:41;-7.40;74.30
3055;DHT22;1537;52.018;8.542;2022-12-18T03:20:14;-7.40;73.80
3055;DHT22;1537;52.018;8.542;2022-12-18T03:23:42;-7.50;73.70
3055;DHT22;1537;52.018;8.542;2022-12-18T03:27:12;-7.50;74.30
3055;DHT22;1537;52.018;8.542;2022-12-18T03:30:38;-7.50;74.00
3055;DHT22;1537;52.018;8.542;2022-12-18T03:34:05;-7.50;73.70
3055;DHT22;1537;52.018;8.542;2022-12-18T03:37:40;-7.40;73.90
3055;DHT22;1537;52.018;8.542;2022-12-18T03:41:10;-7.40;74.10
3055;DHT22;1537;52.018;8.542;2022-12-18T03:45:01;-7.40;73.90
3055;DHT22;1537;52.018;8.542;2022-12-18T03:48:29;-7.40;73.90
3055;DHT22;1537;52.018;8.542;2022-12-18T03:52:04;-7.30;73.40
3055;DHT22;1537;52.018;8.542;2022-12-18T03:55:34;-7.30;73.60
3055;DHT22;1537;52.018;8.542;2022-12-18T03:59:02;-7.30;73.90
3055;DHT22;1537;52.018;8.542;2022-12-18T04:02:29;-7.30;73.90
3055;DHT22;1537;52.018;8.542;2022-12-18T04:05:57;-7.30;73.70
3055;DHT22;1537;52.018;8.542;2022-12-18T04:09:23;-7.40;73.30
3055;DHT22;1537;52.018;8.542;2022-12-18T04:12:50;-7.40;73.60
3055;DHT22;1537;52.018;8.542;2022-12-18T04:16:14;-7.30;73.70
3055;DHT22;1537;52.018;8.542;2022-12-18T04:19:44;-7.30;73.60
3055;DHT22;1537;52.018;8.542;2022-12-18T04:23:08;-7.30;73.30
3055;DHT22;1537;52.018;8.542;2022-12-18T04:26:34;-7.30;73.00
3055;DHT22;1537;52.018;8.542;2022-12-18T04:30:12;-7.30;72.70
3055;DHT22;1537;52.018;8.542;2022-12-18T04:33:36;-7.30;72.90
3055;DHT22;1537;52.018;8.542;2022-12-18T04:37:01;-7.30;73.00
3055;DHT22;1537;52.018;8.542;2022-12-18T04:40:27;-7.20;73.20
3055;DHT22;1537;52.018;8.542;2022-12-18T04:43:50;-7.30;72.90
3055;DHT22;1537;52.018;8.542;2022-12-18T04:47:16;-7.30;73.00
3055;DHT22;1537;52.018;8.542;2022-12-18T04:50:40;-7.30;72.90
3055;DHT22;1537;52.018;8.542;2022-12-18T04:54:05;-7.30;73.10
3055;DHT22;1537;52.018;8.542;2022-12-18T04:57:29;-7.30;72.50
3055;DHT22;1537;52.018;8.542;2022-12-18T05:00:52;-7.30;72.20
3055;DHT22;1537;52.018;8.542;2022-12-18T05:04:22;-7.30;72.80
3055;DHT22;1537;52.018;8.542;2022-12-18T05:07:48;-7.30;72.90
3055;DHT22;1537;52.018;8.542;2022-12-18T05:11:14;-7.40;73.00
3055;DHT22;1537;52.018;8.542;2022-12-18T05:14:38;-7.40;73.00
3055;DHT22;1537;52.018;8.542;2022-12-18T05:18:03;-7.40;73.00
3055;DHT22;1537;52.018;8.542;2022-12-18T05:21:29;-7.40;73.10
3055;DHT22;1537;52.018;8.542;2022-12-18T05:24:53;-7.40;73.20
3055;DHT22;1537;52.018;8.542;2022-12-18T05:28:18;-7.50;72.70
3055;DHT22;1537;52.018;8.542;2022-12-18T05:31:42;-7.50;73.20
3055;DHT22;1537;52.018;8.542;2022-12-18T05:35:10;-7.50;73.30
3055;DHT22;1537;52.018;8.542;2022-12-18T05:38:39;-7.40;72.70
3055;DHT22;1537;52.018;8.542;2022-12-18T05:42:02;-7.50;72.30
3055;DHT22;1537;52.018;8.542;2022-12-18T05:45:26;-7.50;72.60
3055;DHT22;1537;52.018;8.542;2022-12-18T05:48:51;-7.50;72.90
3055;DHT22;1537;52.018;8.542;2022-12-18T05:52:15;-7.50;73.60
3055;DHT22;1537;52.018;8.542;2022-12-18T05:55:43;-7.50;72.80
3055;DHT22;1537;52.018;8.542;2022-12-18T05:59:08;-7.50;72.60
3055;DHT22;1537;52.018;8.542;2022-12-18T06:02:36;-7.50;73.00
3055;DHT22;1537;52.018;8.542;2022-12-18T06:05:59;-7.50;73.00
3055;DHT22;1537;52.018;8.542;2022-12-18T06:09:25;-7.50;72.80
3055;DHT22;1537;52.018;8.542;2022-12-18T06:12:50;-7.50;72.80
3055;DHT22;1537;52.018;8.542;2022-12-18T06:16:14;-7.50;72.50
3055;DHT22;1537;52.018;8.542;2022-12-18T06:19:40;-7.60;72.50
3055;DHT22;1537;52.018;8.542;2022-12-18T06:23:05;-7.60;72.30
3055;DHT22;1537;52.018;8.542;2022-12-18T06:26:29;-7.60;72.10
3055;DHT22;1537;52.018;8.542;2022-12-18T06:29:57;-7.60;72.40
3055;DHT22;1537;52.018;8.542;2022-12-18T06:33:22;-7.60;72.50
3055;DHT22;1537;52.018;8.542;2022-12-18T06:36:50;-7.60;72.90
3055;DHT22;1537;52.018;8.542;2022-12-18T06:40:14;-7.60;72.10
3055;DHT22;1537;52.018;8.542;2022-12-18T06:43:38;-7.70;72.30
3055;DHT22;1537;52.018;8.542;2022-12-18T06:47:04;-7.70;73.00
3055;DHT22;1537;52.018;8.542;2022-12-18T06:50:28;-7.70;73.20
3055;DHT22;1537;52.018;8.542;2022-12-18T06:53:54;-7.70;74.00
3055;DHT22;1537;52.018;8.542;2022-12-18T06:57:19;-7.70;74.40
3055;DHT22;1537;52.018;8.542;2022-12-18T07:00:46;-7.70;74.60
3055;DHT22;1537;52.018;8.542;2022-12-18T07:04:11;-7.70;74.60
3055;DHT22;1537;52.018;8.542;2022-12-18T07:07:36;-7.60;74.80
3055;DHT22;1537;52.018;8.542;2022-12-18T07:11:03;-7.60;74.10
3055;DHT22;1537;52.018;8.542;2022-12-18T07:14:32;-7.50;74.20
3055;DHT22;1537;52.018;8.542;2022-12-18T07:18:00;-7.50;75.00
3055;DHT22;1537;52.018;8.542;2022-12-18T07:21:25;-7.50;74.20
3055;DHT22;1537;52.018;8.542;2022-12-18T07:24:49;-7.40;74.20
3055;DHT22;1537;52.018;8.542;2022-12-18T07:28:12;-7.40;74.30
3055;DHT22;1537;52.018;8.542;2022-12-18T07:31:39;-7.40;74.10
3055;DHT22;1537;52.018;8.542;2022-12-18T07:35:03;-7.40;73.70
3055;DHT22;1537;52.018;8.542;2022-12-18T07:38:28;-7.40;73.90
3055;DHT22;1537;52.018;8.542;2022-12-18T07:41:52;-7.30;73.90
3055;DHT22;1537;52.018;8.542;2022-12-18T07:45:30;-7.30;73.80
3055;DHT22;1537;52.018;8.542;2022-12-18T07:48:55;-7.20;73.70
3055;DHT22;1537;52.018;8.542;2022-12-18T07:52:19;-7.10;73.00
3055;DHT22;1537;52.018;8.542;2022-12-18T07:55:54;-7.10;72.80
3055;DHT22;1537;52.018;8.542;2022-12-18T07:59:38;-7.10;73.10
3055;DHT22;1537;52.018;8.542;2022-12-18T08:03:02;-7.00;73.40
3055;DHT22;1537;52.018;8.542;2022-12-18T08:06:27;-6.90;73.40
3055;DHT22;1537;52.018;8.542;2022-12-18T08:09:51;-6.90;73.10
3055;DHT22;1537;52.018;8.542;2022-12-18T08:13:18;-6.70;72.80
3055;DHT22;1537;52.018;8.542;2022-12-18T08:16:46;-5.60;77.10
3055;DHT22;1537;52.018;8.542;2022-12-18T08:20:10;-3.40;80.50
3055;DHT22;1537;52.018;8.542;2022-12-18T08:23:37;-1.50;71.40
3055;DHT22;1537;52.018;8.542;2022-12-18T08:27:04;0.40;62.80
3055;DHT22;1537;52.018;8.542;2022-12-18T08:31:17;1.40;53.40
3055;DHT22;1537;52.018;8.542;2022-12-18T08:34:43;2.60;47.50
3055;DHT22;1537;52.018;8.542;2022-12-18T08:38:07;4.10;46.50
3055;DHT22;1537;52.018;8.542;2022-12-18T08:41:31;4.30;43.50
3055;DHT22;1537;52.018;8.542;2022-12-18T08:44:56;3.80;42.10
3055;DHT22;1537;52.018;8.542;2022-12-18T08:48:20;3.00;42.50
3055;DHT22;1537;52.018;8.542;2022-12-18T08:51:45;3.60;43.80
3055;DHT22;1537;52.018;8.542;2022-12-18T08:55:09;4.50;41.80
3055;DHT22;1537;52.018;8.542;2022-12-18T08:58:42;4.70;40.10
3055;DHT22;1537;52.018;8.542;2022-12-18T09:02:06;4.30;41.10
3055;DHT22;1537;52.018;8.542;2022-12-18T09:05:33;4.30;41.30
3055;DHT22;1537;52.018;8.542;2022-12-18T09:08:57;3.10;41.60
3055;DHT22;1537;52.018;8.542;2022-12-18T09:12:22;2.20;43.80
3055;DHT22;1537;52.018;8.542;2022-12-18T09:15:48;1.40;45.70
3055;DHT22;1537;52.018;8.542;2022-12-18T09:19:13;1.10;47.00
3055;DHT22;1537;52.018;8.542;2022-12-18T09:22:39;0.30;48.50
3055;DHT22;1537;52.018;8.542;2022-12-18T09:26:04;-0.60;49.90
3055;DHT22;1537;52.018;8.542;2022-12-18T09:29:28;-1.00;51.90
3055;DHT22;1537;52.018;8.542;2022-12-18T09:32:53;-1.50;53.70
3055;DHT22;1537;52.018;8.542;2022-12-18T09:36:18;-1.40;55.00
3055;DHT22;1537;52.018;8.542;2022-12-18T09:39:44;-1.40;55.30
3055;DHT22;1537;52.018;8.542;2022-12-18T09:43:13;-1.70;55.60
3055;DHT22;1537;52.018;8.542;2022-12-18T09:46:42;-1.90;56.40
3055;DHT22;1537;52.018;8.542;2022-12-18T09:50:23;-2.10;57.70
3055;DHT22;1537;52.018;8.542;2022-12-18T09:53:57;-2.10;59.00
3055;DHT22;1537;52.018;8.542;2022-12-18T09:57:24;-1.70;60.80
3055;DHT22;1537;52.018;8.542;2022-12-18T10:00:51;-0.60;59.50
3055;DHT22;1537;52.018;8.542;2022-12-18T10:04:17;0.30;56.90
3055;DHT22;1537;52.018;8.542;2022-12-18T10:07:52;1.20;54.30
3055;DHT22;1537;52.018;8.542;2022-12-18T10:11:30;1.40;52.00
3055;DHT22;1537;52.018;8.542;2022-12-18T10:15:00;1.70;51.30
3055;DHT22;1537;52.018;8.542;2022-12-18T10:18:34;1.80;50.70
3055;DHT22;1537;52.018;8.542;2022-12-18T10:22:07;2.60;50.00
3055;DHT22;1537;52.018;8.542;2022-12-18T10:25:38;3.00;48.70
3055;DHT22;1537;52.018;8.542;2022-12-18T10:29:09;4.10;47.40
3055;DHT22;1537;52.018;8.542;2022-12-18T10:32:35;4.80;45.70
3055;DHT22;1537;52.018;8.542;2022-12-18T10:36:00;4.30;44.70
3055;DHT22;1537;52.018;8.542;2022-12-18T10:39:25;2.90;48.10
3055;DHT22;1537;52.018;8.542;2022-12-18T10:43:04;3.00;48.30
3055;DHT22;1537;52.018;8.542;2022-12-18T10:46:37;2.10;49.40
3055;DHT22;1537;52.018;8.542;2022-12-18T10:50:19;2.10;50.20
3055;DHT22;1537;52.018;8.542;2022-12-18T10:53:52;2.60;49.60
3055;DHT22;1537;52.018;8.542;2022-12-18T10:57:31;2.40;49.30
3055;DHT22;1537;52.018;8.542;2022-12-18T11:01:04;2.10;50.10
3055;DHT22;1537;52.018;8.542;2022-12-18T11:04:29;1.80;50.70
3055;DHT22;1537;52.018;8.542;2022-12-18T11:07:55;1.40;51.60
3055;DHT22;1537;52.018;8.542;2022-12-18T11:11:21;1.00;53.20
3055;DHT22;1537;52.018;8.542;2022-12-18T11:14:47;0.90;53.90
3055;DHT22;1537;52.018;8.542;2022-12-18T11:18:17;0.70;54.40
3055;DHT22;1537;52.018;8.542;2022-12-18T11:21:42;0.50;54.60
3055;DHT22;1537;52.018;8.542;2022-12-18T11:25:18;0.60;54.80
3055;DHT22;1537;52.018;8.542;2022-12-18T11:29:08;0.40;54.40
3055;DHT22;1537;52.018;8.542;2022-12-18T11:32:35;0.30;55.40
3055;DHT22;1537;52.018;8.542;2022-12-18T11:36:02;0.30;55.20
3055;DHT22;1537;52.018;8.542;2022-12-18T11:39:34;0.20;55.80
3055;DHT22;1537;52.018;8.542;2022-12-18T11:43:07;0.00;56.30
3055;DHT22;1537;52.018;8.542;2022-12-18T11:46:36;-0.10;56.70
3055;DHT22;1537;52.018;8.542;2022-12-18T11:50:03;-0.10;56.80
3055;DHT22;1537;52.018;8.542;2022-12-18T11:53:34;-0.10;56.60
3055;DHT22;1537;52.018;8.542;2022-12-18T11:57:07;-0.20;56.10
3055;DHT22;1537;52.018;8.542;2022-12-18T12:00:35;-0.10;56.50
3055;DHT22;1537;52.018;8.542;2022-12-18T12:07:51;-0.30;56.60
3055;DHT22;1537;52.018;8.542;2022-12-18T12:11:28;-0.30;56.80
3055;DHT22;1537;52.018;8.542;2022-12-18T12:15:01;-0.30;56.80
3055;DHT22;1537;52.018;8.542;2022-12-18T12:18:35;-0.40;57.00
3055;DHT22;1537;52.018;8.542;2022-12-18T12:22:05;-0.40;57.10
3055;DHT22;1537;52.018;8.542;2022-12-18T12:25:36;-0.60;57.50
3055;DHT22;1537;52.018;8.542;2022-12-18T12:29:25;-0.70;57.50
3055;DHT22;1537;52.018;8.542;2022-12-18T12:33:05;-0.60;57.90
3055;DHT22;1537;52.018;8.542;2022-12-18T12:36:41;-0.40;57.70
3055;DHT22;1537;52.018;8.542;2022-12-18T12:40:12;-0.40;57.10
3055;DHT22;1537;52.018;8.542;2022-12-18T12:44:01;-0.30;57.20
3055;DHT22;1537;52.018;8.542;2022-12-18T12:47:28;-0.40;56.20
3055;DHT22;1537;52.018;8.542;2022-12-18T12:50:55;-0.30;57.10
3055;DHT22;1537;52.018;8.542;2022-12-18T12:54:23;-0.30;56.10
3055;DHT22;1537;52.018;8.542;2022-12-18T12:57:54;-0.20;56.20
3055;DHT22;1537;52.018;8.542;2022-12-18T13:01:27;-0.20;55.90
3055;DHT22;1537;52.018;8.542;2022-12-18T13:04:58;-0.30;55.90
3055;DHT22;1537;52.018;8.542;2022-12-18T13:08:25;-0.20;56.10
3055;DHT22;1537;52.018;8.542;2022-12-18T13:12:02;-0.20;55.40
3055;DHT22;1537;52.018;8.542;2022-12-18T13:15:45;-0.30;56.00
3055;DHT22;1537;52.018;8.542;2022-12-18T13:19:21;-0.30;56.30
3055;DHT22;1537;52.018;8.542;2022-12-18T13:22:48;-0.30;56.20
3055;DHT22;1537;52.018;8.542;2022-12-18T13:26:29;-0.30;55.60
3055;DHT22;1537;52.018;8.542;2022-12-18T13:29:55;-0.30;54.70
3055;DHT22;1537;52.018;8.542;2022-12-18T13:33:41;-0.20;55.10
3055;DHT22;1537;52.018;8.542;2022-12-18T13:37:42;-0.30;55.00
3055;DHT22;1537;52.018;8.542;2022-12-18T13:41:22;-0.20;55.00
3055;DHT22;1537;52.018;8.542;2022-12-18T13:44:47;-0.20;54.80
3055;DHT22;1537;52.018;8.542;2022-12-18T13:48:23;-0.30;54.80
3055;DHT22;1537;52.018;8.542;2022-12-18T13:51:49;-0.20;54.80
3055;DHT22;1537;52.018;8.542;2022-12-18T13:55:18;-0.20;54.40
3055;DHT22;1537;52.018;8.542;2022-12-18T13:58:42;-0.20;53.80
3055;DHT22;1537;52.018;8.542;2022-12-18T14:02:13;-0.10;54.10
3055;DHT22;1537;52.018;8.542;2022-12-18T14:05:40;-0.10;54.20
3055;DHT22;1537;52.018;8.542;2022-12-18T14:09:12;-0.10;54.50
3055;DHT22;1537;52.018;8.542;2022-12-18T14:12:45;-0.20;54.80
3055;DHT22;1537;52.018;8.542;2022-12-18T14:16:25;-0.20;55.20
3055;DHT22;1537;52.018;8.542;2022-12-18T14:19:50;-0.30;55.30
3055;DHT22;1537;52.018;8.542;2022-12-18T14:23:30;-0.30;55.00
3055;DHT22;1537;52.018;8.542;2022-12-18T14:26:56;-0.30;54.30
3055;DHT22;1537;52.018;8.542;2022-12-18T14:30:37;-0.30;53.90
3055;DHT22;1537;52.018;8.542;2022-12-18T14:34:01;-0.20;53.70
3055;DHT22;1537;52.018;8.542;2022-12-18T14:37:26;-0.20;53.40
3055;DHT22;1537;52.018;8.542;2022-12-18T14:40:56;-0.20;53.80
3055;DHT22;1537;52.018;8.542;2022-12-18T14:44:20;-0.20;53.50
3055;DHT22;1537;52.018;8.542;2022-12-18T14:47:44;-0.10;53.30
3055;DHT22;1537;52.018;8.542;2022-12-18T14:51:16;-0.20;52.80
3055;DHT22;1537;52.018;8.542;2022-12-18T14:54:40;-0.10;52.70
3055;DHT22;1537;52.018;8.542;2022-12-18T14:58:14;-0.10;52.80
3055;DHT22;1537;52.018;8.542;2022-12-18T15:01:45;-0.10;52.20
3055;DHT22;1537;52.018;8.542;2022-12-18T15:05:18;-0.10;52.10
3055;DHT22;1537;52.018;8.542;2022-12-18T15:08:42;-0.10;51.80
3055;DHT22;1537;52.018;8.542;2022-12-18T15:12:22;-0.10;51.60
3055;DHT22;1537;52.018;8.542;2022-12-18T15:15:49;-0.10;51.20
3055;DHT22;1537;52.018;8.542;2022-12-18T15:19:16;0.00;50.70
3055;DHT22;1537;52.018;8.542;2022-12-18T15:22:40;0.00;50.30
3055;DHT22;1537;52.018;8.542;2022-12-18T15:26:05;0.10;49.90
3055;DHT22;1537;52.018;8.542;2022-12-18T15:29:31;0.20;49.80
3055;DHT22;1537;52.018;8.542;2022-12-18T15:33:22;0.20;49.30
3055;DHT22;1537;52.018;8.542;2022-12-18T15:36:47;0.20;49.40
3055;DHT22;1537;52.018;8.542;2022-12-18T15:40:15;0.20;49.40
3055;DHT22;1537;52.018;8.542;2022-12-18T15:43:41;0.20;49.20
3055;DHT22;1537;52.018;8.542;2022-12-18T15:47:11;0.30;49.40
3055;DHT22;1537;52.018;8.542;2022-12-18T15:50:37;0.30;49.30
3055;DHT22;1537;52.018;8.542;2022-12-18T15:54:02;0.30;48.70
3055;DHT22;1537;52.018;8.542;2022-12-18T15:57:27;0.30;49.10
3055;DHT22;1537;52.018;8.542;2022-12-18T16:00:49;0.30;49.20
3055;DHT22;1537;52.018;8.542;2022-12-18T16:04:15;0.30;49.00
3055;DHT22;1537;52.018;8.542;2022-12-18T16:07:40;0.30;48.50
3055;DHT22;1537;52.018;8.542;2022-12-18T16:11:05;0.30;49.00
3055;DHT22;1537;52.018;8.542;2022-12-18T16:14:30;0.40;48.80
3055;DHT22;1537;52.018;8.542;2022-12-18T16:17:55;0.40;49.10
3055;DHT22;1537;52.018;8.542;2022-12-18T16:21:18;0.30;49.10
3055;DHT22;1537;52.018;8.542;2022-12-18T16:24:44;0.30;49.50
3055;DHT22;1537;52.018;8.542;2022-12-18T16:28:08;0.20;49.40
3055;DHT22;1537;52.018;8.542;2022-12-18T16:31:32;0.20;50.10
3055;DHT22;1537;52.018;8.542;2022-12-18T16:34:59;0.20;49.70
3055;DHT22;1537;52.018;8.542;2022-12-18T16:38:23;0.20;49.80
3055;DHT22;1537;52.018;8.542;2022-12-18T16:41:48;0.20;49.50
3055;DHT22;1537;52.018;8.542;2022-12-18T16:45:14;0.20;49.50
3055;DHT22;1537;52.018;8.542;2022-12-18T16:48:38;0.20;49.50
3055;DHT22;1537;52.018;8.542;2022-12-18T16:52:03;0.20;49.60
3055;DHT22;1537;52.018;8.542;2022-12-18T16:55:27;0.30;49.70
3055;DHT22;1537;52.018;8.542;2022-12-18T16:58:53;0.30;50.00
3055;DHT22;1537;52.018;8.542;2022-12-18T17:02:19;0.30;50.20
3055;DHT22;1537;52.018;8.542;2022-12-18T17:05:45;0.30;49.60
3055;DHT22;1537;52.018;8.542;2022-12-18T17:09:15;0.30;49.20
3055;DHT22;1537;52.018;8.542;2022-12-18T17:12:40;0.30;49.60
3055;DHT22;1537;52.018;8.542;2022-12-18T17:16:07;0.30;49.80
3055;DHT22;1537;52.018;8.542;2022-12-18T17:19:32;0.30;49.80
3055;DHT22;1537;52.018;8.542;2022-12-18T17:22:59;0.30;50.20
3055;DHT22;1537;52.018;8.542;2022-12-18T17:26:24;0.30;50.10
3055;DHT22;1537;52.018;8.542;2022-12-18T17:29:48;0.20;49.70
3055;DHT22;1537;52.018;8.542;2022-12-18T17:33:13;0.30;50.00
3055;DHT22;1537;52.018;8.542;2022-12-18T17:36:37;0.30;50.00
3055;DHT22;1537;52.018;8.542;2022-12-18T17:40:03;0.30;49.60
3055;DHT22;1537;52.018;8.542;2022-12-18T17:43:27;0.30;49.40
3055;DHT22;1537;52.018;8.542;2022-12-18T17:46:51;0.40;49.50
3055;DHT22;1537;52.018;8.542;2022-12-18T17:50:17;0.40;49.30
3055;DHT22;1537;52.018;8.542;2022-12-18T17:53:41;0.50;48.70
3055;DHT22;1537;52.018;8.542;2022-12-18T17:57:05;0.60;48.90
3055;DHT22;1537;52.018;8.542;2022-12-18T18:00:32;0.60;48.40
3055;DHT22;1537;52.018;8.542;2022-12-18T18:04:01;0.60;48.10
3055;DHT22;1537;52.018;8.542;2022-12-18T18:07:27;0.60;47.70
3055;DHT22;1537;52.018;8.542;2022-12-18T18:10:51;0.70;48.60
3055;DHT22;1537;52.018;8.542;2022-12-18T18:14:17;0.70;47.60
3055;DHT22;1537;52.018;8.542;2022-12-18T18:17:40;0.70;47.60
3055;DHT22;1537;52.018;8.542;2022-12-18T18:21:05;0.70;47.70
3055;DHT22;1537;52.018;8.542;2022-12-18T18:24:30;0.70;47.70
3055;DHT22;1537;52.018;8.542;2022-12-18T18:27:55;0.60;47.80
3055;DHT22;1537;52.018;8.542;2022-12-18T18:31:19;0.60;47.70
3055;DHT22;1537;52.018;8.542;2022-12-18T18:34:46;0.60;48.40
3055;DHT22;1537;52.018;8.542;2022-12-18T18:38:10;0.50;48.10
3055;DHT22;1537;52.018;8.542;2022-12-18T18:41:35;0.50;48.60
3055;DHT22;1537;52.018;8.542;2022-12-18T18:44:58;0.50;49.10
3055;DHT22;1537;52.018;8.542;2022-12-18T18:48:22;0.50;49.20
3055;DHT22;1537;52.018;8.542;2022-12-18T18:51:50;0.50;49.70
3055;DHT22;1537;52.018;8.542;2022-12-18T18:55:14;0.50;50.20
3055;DHT22;1537;52.018;8.542;2022-12-18T18:58:48;0.50;50.70
3055;DHT22;1537;52.018;8.542;2022-12-18T19:02:13;0.40;51.00
3055;DHT22;1537;52.018;8.542;2022-12-18T19:05:38;0.40;51.70
3055;DHT22;1537;52.018;8.542;2022-12-18T19:09:08;0.30;52.50
3055;DHT22;1537;52.018;8.542;2022-12-18T19:12:34;0.10;53.20
3055;DHT22;1537;52.018;8.542;2022-12-18T19:16:17;0.10;53.80
3055;DHT22;1537;52.018;8.542;2022-12-18T19:19:45;0.10;54.50
3055;DHT22;1537;52.018;8.542;2022-12-18T19:23:09;0.00;55.10
3055;DHT22;1537;52.018;8.542;2022-12-18T19:26:32;-0.20;55.90
3055;DHT22;1537;52.018;8.542;2022-12-18T19:30:01;-0.30;56.30
3055;DHT22;1537;52.018;8.542;2022-12-18T19:33:27;-0.20;56.60
3055;DHT22;1537;52.018;8.542;2022-12-18T19:37:06;-0.30;56.90
3055;DHT22;1537;52.018;8.542;2022-12-18T19:40:30;-0.30;57.30
3055;DHT22;1537;52.018;8.542;2022-12-18T19:43:54;-0.40;57.70
3055;DHT22;1537;52.018;8.542;2022-12-18T19:47:17;-0.40;58.10
3055;DHT22;1537;52.018;8.542;2022-12-18T19:50:43;-0.40;58.40
3055;DHT22;1537;52.018;8.542;2022-12-18T19:54:06;-0.50;58.60
3055;DHT22;1537;52.018;8.542;2022-12-18T19:57:38;-0.50;59.00
3055;DHT22;1537;52.018;8.542;2022-12-18T20:01:02;-0.50;59.10
3055;DHT22;1537;52.018;8.542;2022-12-18T20:04:32;-0.50;59.30
3055;DHT22;1537;52.018;8.542;2022-12-18T20:07:57;-0.60;59.90
3055;DHT22;1537;52.018;8.542;2022-12-18T20:11:21;-0.60;59.50
3055;DHT22;1537;52.018;8.542;2022-12-18T20:14:45;-0.70;59.70
3055;DHT22;1537;52.018;8.542;2022-12-18T20:18:09;-0.70;59.90
3055;DHT22;1537;52.018;8.542;2022-12-18T20:21:33;-0.70;60.00
3055;DHT22;1537;52.018;8.542;2022-12-18T20:24:59;-0.70;60.30
3055;DHT22;1537;52.018;8.542;2022-12-18T20:28:23;-0.70;60.30
3055;DHT22;1537;52.018;8.542;2022-12-18T20:31:47;-0.70;60.20
3055;DHT22;1537;52.018;8.542;2022-12-18T20:35:11;-0.70;60.40
3055;DHT22;1537;52.018;8.542;2022-12-18T20:38:35;-0.70;60.60
3055;DHT22;1537;52.018;8.542;2022-12-18T20:42:02;-0.70;60.70
3055;DHT22;1537;52.018;8.542;2022-12-18T20:45:27;-0.70;60.90
3055;DHT22;1537;52.018;8.542;2022-12-18T20:48:50;-0.70;61.20
3055;DHT22;1537;52.018;8.542;2022-12-18T20:52:17;-0.70;61.50
3055;DHT22;1537;52.018;8.542;2022-12-18T20:55:41;-0.70;61.80
3055;DHT22;1537;52.018;8.542;2022-12-18T20:59:08;-0.70;61.90
3055;DHT22;1537;52.018;8.542;2022-12-18T21:02:33;-0.70;62.10
3055;DHT22;1537;52.018;8.542;2022-12-18T21:05:57;-0.70;62.30
3055;DHT22;1537;52.018;8.542;2022-12-18T21:09:21;-0.70;62.10
3055;DHT22;1537;52.018;8.542;2022-12-18T21:12:44;-0.70;62.10
3055;DHT22;1537;52.018;8.542;2022-12-18T21:16:22;-0.70;62.50
3055;DHT22;1537;52.018;8.542;2022-12-18T21:19:47;-0.70;62.50
3055;DHT22;1537;52.018;8.542;2022-12-18T21:23:11;-0.70;62.70
3055;DHT22;1537;52.018;8.542;2022-12-18T21:26:38;-0.70;63.00
3055;DHT22;1537;52.018;8.542;2022-12-18T21:30:08;-0.60;62.90
3055;DHT22;1537;52.018;8.542;2022-12-18T21:33:33;-0.60;62.70
3055;DHT22;1537;52.018;8.542;2022-12-18T21:36:59;-0.60;62.70
3055;DHT22;1537;52.018;8.542;2022-12-18T21:40:23;-0.50;62.70
3055;DHT22;1537;52.018;8.542;2022-12-18T21:43:47;-0.50;62.60
3055;DHT22;1537;52.018;8.542;2022-12-18T21:47:28;-0.40;62.60
3055;DHT22;1537;52.018;8.542;2022-12-18T21:50:53;-0.40;62.20
3055;DHT22;1537;52.018;8.542;2022-12-18T21:54:18;-0.40;62.10
3055;DHT22;1537;52.018;8.542;2022-12-18T21:57:43;-0.30;61.90
3055;DHT22;1537;52.018;8.542;2022-12-18T22:01:07;-0.30;61.90
3055;DHT22;1537;52.018;8.542;2022-12-18T22:04:31;-0.30;61.90
3055;DHT22;1537;52.018;8.542;2022-12-18T22:07:56;-0.30;61.80
3055;DHT22;1537;52.018;8.542;2022-12-18T22:11:21;-0.30;61.70
3055;DHT22;1537;52.018;8.542;2022-12-18T22:14:45;-0.30;61.60
3055;DHT22;1537;52.018;8.542;2022-12-18T22:18:08;-0.30;61.50
3055;DHT22;1537;52.018;8.542;2022-12-18T22:21:35;-0.30;61.50
3055;DHT22;1537;52.018;8.542;2022-12-18T22:25:00;-0.20;61.20
3055;DHT22;1537;52.018;8.542;2022-12-18T22:28:24;-0.10;61.40
3055;DHT22;1537;52.018;8.542;2022-12-18T22:32:08;-0.10;61.10
3055;DHT22;1537;52.018;8.542;2022-12-18T22:35:33;0.00;61.10
3055;DHT22;1537;52.018;8.542;2022-12-18T22:38:58;0.10;61.00
3055;DHT22;1537;52.018;8.542;2022-12-18T22:42:23;0.10;60.80
3055;DHT22;1537;52.018;8.542;2022-12-18T22:45:48;0.10;60.80
3055;DHT22;1537;52.018;8.542;2022-12-18T22:49:19;0.10;61.10